createdAt,value
2022-10-18T00:00:27.948Z,16.30
2022-10-18T00:03:30.651Z,17.33
2022-10-18T00:06:33.515Z,15.65
2022-10-18T00:09:36.206Z,16.12
2022-10-18T00:12:38.783Z,14.90
2022-10-18T00:15:48.967Z,14.93
2022-10-18T00:18:51.558Z,20.63
2022-10-18T00:21:54.065Z,18.20
2022-10-18T00:24:56.650Z,17.15
2022-10-18T00:27:59.148Z,15.07
2022-10-18T00:31:14.951Z,18.03
2022-10-18T00:34:17.613Z,14.17
2022-10-18T00:37:20.218Z,15.88
2022-10-18T00:40:22.701Z,18.25
2022-10-18T00:43:25.253Z,18.85
2022-10-18T00:46:38.865Z,16.27
2022-10-18T00:49:54.341Z,17.47
2022-10-18T00:52:59.763Z,16.65
2022-10-18T00:56:02.350Z,16.27
2022-10-18T00:59:04.912Z,16.15
2022-10-18T01:02:07.982Z,16.30
2022-10-18T01:05:15.261Z,20.40
2022-10-18T01:08:36.493Z,20.17
2022-10-18T01:12:14.556Z,17.05
2022-10-18T01:15:29.281Z,19.25
2022-10-18T01:18:40.583Z,20.10
2022-10-18T01:21:57.846Z,25.47
2022-10-18T01:25:16.741Z,16.25
2022-10-18T01:28:37.919Z,16.80
2022-10-18T01:31:47.551Z,17.35
2022-10-18T01:34:51.548Z,18.83
2022-10-18T01:37:56.636Z,17.33
2022-10-18T01:41:00.731Z,20.80
2022-10-18T01:44:04.982Z,17.17
2022-10-18T01:47:09.979Z,18.10
2022-10-18T01:50:12.699Z,16.63
2022-10-18T01:53:33.287Z,19.60
2022-10-18T01:56:49.754Z,16.95
2022-10-18T01:59:59.773Z,22.95
2022-10-18T02:03:05.998Z,17.80
2022-10-18T02:06:14.321Z,15.90
2022-10-18T02:09:20.207Z,17.53
2022-10-18T02:12:23.204Z,18.95
2022-10-18T02:15:31.624Z,15.88
2022-10-18T02:18:38.363Z,17.25
2022-10-18T02:21:42.719Z,19.20
2022-10-18T02:24:49.199Z,17.73
2022-10-18T02:27:52.332Z,19.17
2022-10-18T02:31:26.410Z,17.37
2022-10-18T02:34:44.646Z,16.35
2022-10-18T02:37:48.251Z,16.77
2022-10-18T02:40:50.999Z,16.73
2022-10-18T02:43:54.106Z,18.87
2022-10-18T02:46:56.722Z,17.80
2022-10-18T02:49:59.311Z,19.58
2022-10-18T02:53:01.843Z,18.30
2022-10-18T02:56:04.570Z,15.00
2022-10-18T02:59:07.673Z,17.50
2022-10-18T03:02:10.433Z,19.48
2022-10-18T03:05:12.993Z,18.02
2022-10-18T03:08:15.876Z,21.50
2022-10-18T03:11:18.435Z,17.07
2022-10-18T03:14:21.098Z,16.15
2022-10-18T03:17:23.635Z,15.75
2022-10-18T03:20:26.358Z,16.77
2022-10-18T03:23:28.836Z,19.67
2022-10-18T03:26:31.335Z,18.53
2022-10-18T03:29:33.965Z,19.10
2022-10-18T03:32:36.715Z,19.27
2022-10-18T03:35:39.232Z,18.98
2022-10-18T03:38:42.373Z,17.90
2022-10-18T03:41:44.907Z,20.00
2022-10-18T03:44:47.470Z,16.08
2022-10-18T03:47:49.942Z,19.62
2022-10-18T03:50:52.420Z,19.30
2022-10-18T03:53:55.011Z,18.13
2022-10-18T03:56:57.536Z,20.00
2022-10-18T04:00:00.023Z,17.98
2022-10-18T04:03:02.498Z,21.50
2022-10-18T04:06:05.184Z,19.95
2022-10-18T04:09:10.207Z,23.77
2022-10-18T04:12:12.972Z,21.63
2022-10-18T04:15:15.748Z,19.35
2022-10-18T04:18:18.309Z,20.70
2022-10-18T04:21:21.047Z,21.05
2022-10-18T04:24:23.761Z,23.13
2022-10-18T04:27:26.310Z,17.67
2022-10-18T04:30:28.907Z,19.52
2022-10-18T04:33:31.645Z,20.08
2022-10-18T04:36:34.199Z,22.30
2022-10-18T04:39:36.747Z,22.23
2022-10-18T04:42:39.241Z,20.43
2022-10-18T04:45:42.090Z,21.00
2022-10-18T04:48:44.671Z,17.37
2022-10-18T04:51:47.245Z,19.60
2022-10-18T04:54:49.774Z,23.30
2022-10-18T04:57:53.300Z,21.70
2022-10-18T05:00:56.075Z,24.77
2022-10-18T05:03:58.616Z,26.17
2022-10-18T05:07:01.136Z,22.35
2022-10-18T05:10:04.684Z,19.37
2022-10-18T05:13:07.481Z,18.87
2022-10-18T05:16:11.043Z,24.95
2022-10-18T05:19:13.642Z,19.77
2022-10-18T05:22:16.332Z,21.60
2022-10-18T05:25:18.827Z,20.10
2022-10-18T05:28:38.843Z,23.57
2022-10-18T05:31:42.476Z,23.17
2022-10-18T05:34:45.056Z,19.58
2022-10-18T05:37:47.540Z,20.17
2022-10-18T05:40:52.599Z,21.93
2022-10-18T05:43:55.173Z,23.13
2022-10-18T05:46:57.771Z,19.85
2022-10-18T05:50:00.335Z,132.02
2022-10-18T05:53:12.498Z,30.75
2022-10-18T05:56:25.539Z,37.97
2022-10-18T05:59:28.155Z,27.57
2022-10-18T06:02:30.686Z,26.12
2022-10-18T06:05:33.771Z,39.85
2022-10-18T06:08:37.577Z,76.07
2022-10-18T06:11:40.206Z,50.80
2022-10-18T06:14:43.894Z,31.50
2022-10-18T06:17:46.496Z,33.75
2022-10-18T06:20:49.548Z,34.90
2022-10-18T06:23:54.059Z,39.70
2022-10-18T06:26:57.756Z,36.70
2022-10-18T06:30:00.575Z,32.80
2022-10-18T06:33:03.175Z,33.53
2022-10-18T06:36:15.605Z,33.15
2022-10-18T06:39:18.234Z,33.47
2022-10-18T06:42:22.684Z,27.30
2022-10-18T06:45:25.396Z,26.10
2022-10-18T06:48:27.927Z,28.95
2022-10-18T06:51:30.694Z,24.83
2022-10-18T06:54:33.824Z,23.42
2022-10-18T06:57:36.335Z,24.30
2022-10-18T07:00:39.675Z,22.27
2022-10-18T07:03:42.845Z,23.98
2022-10-18T07:06:45.475Z,21.62
2022-10-18T07:09:48.319Z,23.90
2022-10-18T07:12:53.458Z,21.43
2022-10-18T07:16:14.278Z,18.73
2022-10-18T07:19:19.984Z,20.23
2022-10-18T07:22:25.916Z,22.30
2022-10-18T07:25:31.472Z,18.42
2022-10-18T07:28:34.903Z,16.85
2022-10-18T07:31:38.891Z,19.43
2022-10-18T07:34:41.768Z,17.70
2022-10-18T07:37:44.331Z,15.55
2022-10-18T07:40:46.889Z,15.60
2022-10-18T07:43:51.578Z,19.50
2022-10-18T07:46:54.427Z,16.50
2022-10-18T07:49:56.998Z,12.65
2022-10-18T07:52:59.797Z,19.33
2022-10-18T07:56:08.754Z,14.18
2022-10-18T07:59:12.460Z,9.73
2022-10-18T08:02:15.316Z,11.80
2022-10-18T08:05:21.122Z,10.93
2022-10-18T08:08:25.036Z,11.90
2022-10-18T08:11:28.041Z,11.27
2022-10-18T08:14:30.741Z,11.77
2022-10-18T08:17:33.809Z,16.43
2022-10-18T08:20:37.268Z,14.38
2022-10-18T08:23:40.369Z,12.30
2022-10-18T08:26:42.956Z,15.02
2022-10-18T08:29:45.531Z,13.15
2022-10-18T08:32:48.763Z,14.13
2022-10-18T08:35:58.616Z,14.18
2022-10-18T08:39:03.085Z,15.18
2022-10-18T08:42:23.890Z,12.90
2022-10-18T08:45:42.094Z,14.35
2022-10-18T08:48:49.236Z,12.83
2022-10-18T08:51:52.500Z,13.05
2022-10-18T08:55:02.308Z,13.57
2022-10-18T08:58:16.104Z,13.25
2022-10-18T09:01:24.628Z,12.10
2022-10-18T09:04:36.207Z,12.23
2022-10-18T09:08:00.168Z,14.43
2022-10-18T09:11:15.226Z,16.33
2022-10-18T09:14:17.821Z,16.35
2022-10-18T09:17:41.605Z,13.43
2022-10-18T09:20:56.988Z,14.80
2022-10-18T09:24:05.721Z,17.00
2022-10-18T09:27:37.728Z,15.65
2022-10-18T09:30:52.314Z,16.45
2022-10-18T09:33:59.308Z,12.85
2022-10-18T09:37:02.647Z,16.20
2022-10-18T09:40:26.410Z,12.37
2022-10-18T09:43:46.659Z,13.48
2022-10-18T09:47:02.362Z,11.25
2022-10-18T09:50:36.959Z,12.13
2022-10-18T09:53:58.330Z,12.43
2022-10-18T09:57:05.684Z,9.95
2022-10-18T10:00:17.085Z,13.32
2022-10-18T10:03:19.724Z,11.52
2022-10-18T10:06:25.470Z,11.38
2022-10-18T10:09:31.107Z,49.20
2022-10-18T10:12:38.802Z,48.15
2022-10-18T10:16:01.518Z,20.77
2022-10-18T10:19:04.163Z,31.45
2022-10-18T10:22:11.298Z,52.45
2022-10-18T10:25:29.189Z,264.53
2022-10-18T10:28:36.066Z,200.13
2022-10-18T10:31:38.691Z,393.20
2022-10-18T10:34:44.620Z,71.18
2022-10-18T10:37:52.789Z,188.73
2022-10-18T10:40:58.891Z,208.17
2022-10-18T10:44:03.145Z,33.03
2022-10-18T10:47:05.870Z,19.27
2022-10-18T10:50:13.031Z,157.93
2022-10-18T10:53:50.963Z,30.50
2022-10-18T10:57:12.837Z,14.37
2022-10-18T11:00:34.333Z,27.27
2022-10-18T11:03:36.980Z,14.20
2022-10-18T11:06:45.064Z,19.05
2022-10-18T11:09:54.016Z,17.00
2022-10-18T11:13:05.401Z,10.67
2022-10-18T11:16:14.988Z,15.65
2022-10-18T11:19:36.478Z,20.10
2022-10-18T11:22:47.459Z,10.05
2022-10-18T11:26:11.837Z,13.48
2022-10-18T11:29:21.896Z,12.80
2022-10-18T11:32:52.281Z,12.85
2022-10-18T11:36:36.744Z,14.32
2022-10-18T11:40:12.682Z,11.38
2022-10-18T11:44:00.657Z,10.20
2022-10-18T11:47:08.594Z,11.40
2022-10-18T11:50:20.408Z,11.40
2022-10-18T11:53:41.831Z,10.93
2022-10-18T11:57:10.896Z,13.20
2022-10-18T12:00:22.592Z,13.02
2022-10-18T12:03:48.598Z,12.93
2022-10-18T12:06:53.072Z,10.25
2022-10-18T12:09:56.156Z,13.02
2022-10-18T12:13:02.346Z,11.05
2022-10-18T12:16:05.773Z,14.45
2022-10-18T12:19:33.647Z,14.60
2022-10-18T12:22:43.533Z,12.20
2022-10-18T12:25:50.137Z,13.10
2022-10-18T12:29:10.973Z,12.43
2022-10-18T12:32:16.049Z,17.30
2022-10-18T12:35:20.127Z,11.43
2022-10-18T12:38:28.237Z,12.90
2022-10-18T12:41:33.269Z,13.93
2022-10-18T12:44:35.943Z,13.00
2022-10-18T12:47:38.962Z,14.70
2022-10-18T12:50:43.091Z,14.23
2022-10-18T12:54:02.340Z,12.52
2022-10-18T12:57:23.431Z,17.87
2022-10-18T13:00:29.703Z,14.63
2022-10-18T13:03:51.765Z,14.27
2022-10-18T13:07:08.062Z,16.17
2022-10-18T13:10:10.610Z,13.18
2022-10-18T13:13:38.821Z,13.10
2022-10-18T13:17:21.230Z,15.80
2022-10-18T13:20:40.290Z,12.52
2022-10-18T13:24:06.681Z,14.43
2022-10-18T13:27:36.235Z,11.90
2022-10-18T13:30:55.056Z,13.25
2022-10-18T13:34:28.247Z,13.20
2022-10-18T13:37:31.098Z,13.68
2022-10-18T13:40:34.483Z,15.47
2022-10-18T13:44:00.187Z,14.05
2022-10-18T13:47:02.731Z,15.18
2022-10-18T13:50:18.606Z,16.75
2022-10-18T13:53:48.964Z,12.88
2022-10-18T13:57:16.560Z,15.60
2022-10-18T14:00:38.518Z,18.85
2022-10-18T14:04:08.686Z,15.18
2022-10-18T14:07:12.531Z,12.15
2022-10-18T14:10:50.228Z,13.88
2022-10-18T14:14:17.496Z,13.73
2022-10-18T14:17:23.336Z,16.77
2022-10-18T14:20:29.989Z,12.70
2022-10-18T14:23:38.327Z,11.15
2022-10-18T14:26:40.993Z,14.87
2022-10-18T14:29:43.829Z,12.53
2022-10-18T14:32:49.291Z,13.25
2022-10-18T14:35:59.980Z,21.60
2022-10-18T14:39:07.012Z,33.17
2022-10-18T14:42:20.152Z,16.77
2022-10-18T14:45:24.372Z,15.17
2022-10-18T14:48:27.424Z,15.23
2022-10-18T14:51:33.392Z,15.90
2022-10-18T14:54:39.322Z,14.52
2022-10-18T14:57:41.991Z,17.67
2022-10-18T15:00:48.475Z,16.17
2022-10-18T15:03:56.337Z,15.13
2022-10-18T15:07:07.685Z,16.48
2022-10-18T15:10:19.056Z,13.55
2022-10-18T15:13:22.008Z,15.25
2022-10-18T15:16:30.091Z,17.47
2022-10-18T15:19:36.275Z,16.87
2022-10-18T15:22:39.152Z,20.35
2022-10-18T15:25:41.854Z,17.62
2022-10-18T15:28:51.633Z,15.38
2022-10-18T15:31:55.175Z,95.60
2022-10-18T15:35:19.169Z,31.48
2022-10-18T15:38:28.983Z,33.97
2022-10-18T15:41:51.785Z,27.95
2022-10-18T15:44:54.667Z,20.00
2022-10-18T15:48:06.480Z,16.90
2022-10-18T15:51:40.559Z,19.35
2022-10-18T15:54:43.137Z,15.88
2022-10-18T15:57:45.808Z,18.62
2022-10-18T16:00:49.982Z,24.35
2022-10-18T16:06:58.142Z,31.58
2022-10-18T16:10:01.095Z,28.38
2022-10-18T16:13:03.626Z,24.80
2022-10-18T16:16:06.433Z,22.60
2022-10-18T16:19:14.522Z,15.97
2022-10-18T16:22:20.199Z,17.77
2022-10-18T16:25:22.889Z,17.77
2022-10-18T16:28:26.392Z,18.27
2022-10-18T16:31:32.085Z,16.48
2022-10-18T16:34:34.892Z,18.63
2022-10-18T16:37:38.591Z,18.37
2022-10-18T16:40:41.575Z,22.08
2022-10-18T16:43:45.731Z,28.90
2022-10-18T16:46:51.167Z,22.45
2022-10-18T16:49:56.615Z,25.03
2022-10-18T16:52:59.185Z,25.30
2022-10-18T16:56:03.367Z,32.53
2022-10-18T16:59:06.281Z,23.38
2022-10-18T17:02:09.517Z,25.77
2022-10-18T17:05:12.077Z,23.60
2022-10-18T17:08:26.406Z,20.48
2022-10-18T17:11:29.134Z,25.10
2022-10-18T17:14:33.481Z,22.05
2022-10-18T17:17:36.813Z,27.35
2022-10-18T17:20:41.909Z,19.27
2022-10-18T17:23:44.590Z,28.12
2022-10-18T17:26:47.335Z,27.05
2022-10-18T17:29:49.947Z,21.15
2022-10-18T17:32:53.897Z,30.77
2022-10-18T17:35:58.045Z,23.97
2022-10-18T17:39:02.190Z,23.90
2022-10-18T17:42:04.832Z,27.83
2022-10-18T17:45:08.603Z,31.83
2022-10-18T17:48:12.096Z,25.70
2022-10-18T17:51:17.010Z,27.60
2022-10-18T17:54:20.122Z,24.85
2022-10-18T17:57:22.854Z,31.33
2022-10-18T18:00:25.568Z,34.88
2022-10-18T18:03:28.345Z,38.63
2022-10-18T18:06:34.398Z,58.13
2022-10-18T18:09:37.267Z,58.25
2022-10-18T18:12:40.388Z,77.65
2022-10-18T18:15:44.348Z,64.85
2022-10-18T18:18:47.712Z,68.10
2022-10-18T18:21:53.934Z,65.30
2022-10-18T18:24:57.905Z,66.10
2022-10-18T18:28:05.141Z,63.28
2022-10-18T18:31:15.826Z,73.70
2022-10-18T18:34:21.487Z,74.65
2022-10-18T18:37:24.868Z,75.97
2022-10-18T18:40:27.597Z,75.80
2022-10-18T18:43:30.463Z,65.93
2022-10-18T18:46:38.583Z,71.60
2022-10-18T18:49:41.850Z,68.97
2022-10-18T18:52:44.689Z,65.30
2022-10-18T18:55:50.870Z,86.57
2022-10-18T18:58:53.992Z,65.35
2022-10-18T19:01:56.707Z,59.90
2022-10-18T19:04:59.496Z,61.60
2022-10-18T19:08:04.010Z,52.43
2022-10-18T19:11:09.427Z,39.45
2022-10-18T19:14:12.669Z,40.97
2022-10-18T19:17:16.621Z,33.78
2022-10-18T19:20:20.257Z,35.35
2022-10-18T19:26:38.796Z,50.10
2022-10-18T19:29:42.319Z,33.95
2022-10-18T19:32:46.333Z,31.33
2022-10-18T19:35:49.267Z,32.25
2022-10-18T19:38:52.032Z,28.07
2022-10-18T19:41:56.479Z,29.40
2022-10-18T19:44:59.143Z,28.58
2022-10-18T19:48:01.791Z,29.90
2022-10-18T19:51:07.991Z,27.60
2022-10-18T19:54:13.068Z,29.27
2022-10-18T19:57:15.932Z,28.75
2022-10-18T20:00:19.782Z,28.55
2022-10-18T20:03:23.450Z,30.98
2022-10-18T20:06:26.254Z,35.20
2022-10-18T20:09:30.191Z,37.53
2022-10-18T20:12:33.187Z,45.72
2022-10-18T20:15:35.943Z,50.53
2022-10-18T20:18:39.694Z,54.33
2022-10-18T20:21:42.263Z,47.05
2022-10-18T20:24:46.714Z,50.30
2022-10-18T20:27:49.824Z,53.70
2022-10-18T20:31:05.787Z,55.50
2022-10-18T20:34:11.318Z,57.55
2022-10-18T20:37:13.885Z,50.83
2022-10-18T20:40:17.121Z,57.40
2022-10-18T20:43:19.792Z,61.95
2022-10-18T20:46:22.563Z,52.90
2022-10-18T20:49:26.614Z,53.75
2022-10-18T20:52:29.482Z,53.10
2022-10-18T20:55:32.038Z,57.13
2022-10-18T20:58:35.232Z,53.45
2022-10-18T21:01:38.932Z,50.88
2022-10-18T21:04:43.454Z,50.92
2022-10-18T21:07:46.114Z,46.00
2022-10-18T21:10:50.120Z,46.30
2022-10-18T21:13:54.330Z,51.47
2022-10-18T21:16:59.878Z,50.83
2022-10-18T21:20:02.592Z,54.20
2022-10-18T21:23:05.131Z,55.58
2022-10-18T21:26:08.223Z,75.60
2022-10-18T21:29:12.033Z,59.60
2022-10-18T21:32:15.144Z,54.60
2022-10-18T21:35:17.686Z,52.80
2022-10-18T21:38:20.358Z,50.07
2022-10-18T21:41:24.373Z,51.93
2022-10-18T21:44:26.936Z,46.05
2022-10-18T21:47:29.686Z,39.03
2022-10-18T21:50:34.266Z,45.50
2022-10-18T21:53:39.895Z,41.97
2022-10-18T21:56:42.595Z,42.93
2022-10-18T21:59:48.247Z,40.17
2022-10-18T22:03:08.907Z,35.38
2022-10-18T22:06:14.651Z,37.55
2022-10-18T22:09:17.458Z,34.72
2022-10-18T22:12:20.189Z,32.13
2022-10-18T22:15:22.781Z,28.87
2022-10-18T22:18:29.281Z,35.10
2022-10-18T22:21:32.506Z,30.92
2022-10-18T22:24:38.459Z,29.67
2022-10-18T22:27:41.442Z,29.23
2022-10-18T22:30:44.135Z,28.05
2022-10-18T22:33:47.305Z,28.10
2022-10-18T22:36:50.041Z,29.60
2022-10-18T22:39:52.708Z,26.08
2022-10-18T22:42:58.189Z,29.53
2022-10-18T22:46:05.357Z,26.08
2022-10-18T22:49:08.597Z,24.33
2022-10-18T22:52:11.257Z,27.02
2022-10-18T22:55:13.880Z,27.77
2022-10-18T22:58:17.079Z,26.07
2022-10-18T23:01:22.019Z,25.02
2022-10-18T23:04:24.597Z,26.75
2022-10-18T23:07:30.311Z,22.05
2022-10-18T23:10:38.711Z,21.87
2022-10-18T23:13:41.279Z,22.23
2022-10-18T23:16:44.029Z,21.77
2022-10-18T23:19:46.707Z,23.70
2022-10-18T23:22:49.256Z,20.62
2022-10-18T23:25:54.139Z,21.85
2022-10-18T23:28:57.490Z,24.90
2022-10-18T23:32:00.150Z,26.75
2022-10-18T23:35:02.740Z,25.98
2022-10-18T23:38:05.397Z,26.87
2022-10-18T23:41:10.253Z,26.08
2022-10-18T23:44:15.012Z,22.00
2022-10-18T23:47:17.733Z,22.25
2022-10-18T23:50:25.715Z,23.52
2022-10-18T23:53:28.963Z,30.88
2022-10-18T23:56:31.555Z,24.45
2022-10-18T23:59:34.112Z,23.27
